createdAt,value
2019-06-15T00:00:15.205Z,6.60
2019-06-15T00:01:15.185Z,7.20
2019-06-15T00:02:15.185Z,6.00
2019-06-15T00:03:15.176Z,6.50
2019-06-15T00:04:15.173Z,6.30
2019-06-15T00:05:15.176Z,6.80
2019-06-15T00:06:15.173Z,6.50
2019-06-15T00:07:15.171Z,6.60
2019-06-15T00:08:15.170Z,6.30
2019-06-15T00:09:15.161Z,6.10
2019-06-15T00:10:15.161Z,5.60
2019-06-15T00:11:15.161Z,5.40
2019-06-15T00:12:15.159Z,5.30
2019-06-15T00:13:15.159Z,5.10
2019-06-15T00:14:15.157Z,5.60
2019-06-15T00:15:15.152Z,5.70
2019-06-15T00:16:15.153Z,5.70
2019-06-15T00:17:15.152Z,6.10
2019-06-15T00:18:15.151Z,5.50
2019-06-15T00:19:15.145Z,5.80
2019-06-15T00:20:15.141Z,6.00
2019-06-15T00:21:15.142Z,6.10
2019-06-15T00:22:15.133Z,5.70
2019-06-15T00:23:15.133Z,6.00
2019-06-15T00:24:15.127Z,6.00
2019-06-15T00:25:15.137Z,7.00
2019-06-15T00:26:15.129Z,6.70
2019-06-15T00:27:15.129Z,6.40
2019-06-15T00:28:15.181Z,6.00
2019-06-15T00:29:15.120Z,6.70
2019-06-15T00:30:15.119Z,5.90
2019-06-15T00:31:15.121Z,5.90
2019-06-15T00:32:15.117Z,6.00
2019-06-15T00:33:15.113Z,6.70
2019-06-15T00:34:15.111Z,7.20
2019-06-15T00:35:15.107Z,8.10
2019-06-15T00:36:15.103Z,8.20
2019-06-15T00:37:15.104Z,9.60
2019-06-15T00:38:15.104Z,9.00
2019-06-15T00:39:15.109Z,8.40
2019-06-15T00:40:15.101Z,10.30
2019-06-15T00:41:15.097Z,9.80
2019-06-15T00:42:15.094Z,10.30
2019-06-15T00:43:15.094Z,8.70
2019-06-15T00:44:15.085Z,9.50
2019-06-15T00:45:15.087Z,9.20
2019-06-15T00:46:15.087Z,8.10
2019-06-15T00:47:15.084Z,8.80
2019-06-15T00:48:15.076Z,8.70
2019-06-15T00:49:15.079Z,8.30
2019-06-15T00:50:15.075Z,8.90
2019-06-15T00:51:15.076Z,9.40
2019-06-15T00:52:15.086Z,8.60
2019-06-15T00:53:15.067Z,8.20
2019-06-15T00:54:15.066Z,8.90
2019-06-15T00:55:15.062Z,9.30
2019-06-15T00:56:15.060Z,9.20
2019-06-15T00:57:15.063Z,9.10
2019-06-15T00:58:15.057Z,8.90
2019-06-15T00:59:15.110Z,9.30
2019-06-15T01:00:15.050Z,9.20
2019-06-15T01:01:15.043Z,9.20
2019-06-15T01:02:15.042Z,8.90
2019-06-15T01:03:15.042Z,9.10
2019-06-15T01:04:15.040Z,8.90
2019-06-15T01:05:15.032Z,9.50
2019-06-15T01:06:15.030Z,10.40
2019-06-15T01:07:15.031Z,9.90
2019-06-15T01:08:15.026Z,9.60
2019-06-15T01:09:15.043Z,8.80
2019-06-15T01:10:15.026Z,9.30
2019-06-15T01:11:15.022Z,8.40
2019-06-15T01:12:15.020Z,9.00
2019-06-15T01:13:15.012Z,9.10
2019-06-15T01:14:15.011Z,8.50
2019-06-15T01:15:15.016Z,8.30
2019-06-15T01:16:15.001Z,7.40
2019-06-15T01:17:15.006Z,7.90
2019-06-15T01:18:15.023Z,8.10
2019-06-15T01:19:14.993Z,7.80
2019-06-15T01:20:14.987Z,7.60
2019-06-15T01:21:14.995Z,7.70
2019-06-15T01:22:14.990Z,8.00
2019-06-15T01:23:14.988Z,7.60
2019-06-15T01:24:14.984Z,6.80
2019-06-15T01:25:14.979Z,6.80
2019-06-15T01:26:14.978Z,6.70
2019-06-15T01:27:14.975Z,6.90
2019-06-15T01:28:14.968Z,6.00
2019-06-15T01:29:14.969Z,6.50
2019-06-15T01:30:14.976Z,6.60
2019-06-15T01:31:14.965Z,5.80
2019-06-15T01:32:14.958Z,5.60
2019-06-15T01:33:14.951Z,6.20
2019-06-15T01:34:14.952Z,7.00
2019-06-15T01:35:14.948Z,6.80
2019-06-15T01:36:14.948Z,7.50
2019-06-15T01:37:14.944Z,7.70
2019-06-15T01:38:14.937Z,7.30
2019-06-15T01:39:14.936Z,7.70
2019-06-15T01:40:14.933Z,7.60
2019-06-15T01:41:14.935Z,9.00
2019-06-15T01:42:14.934Z,8.10
2019-06-15T01:43:14.929Z,7.70
2019-06-15T01:44:14.925Z,8.70
2019-06-15T01:45:14.920Z,8.10
2019-06-15T01:46:14.916Z,7.70
2019-06-15T01:47:14.919Z,8.10
2019-06-15T01:48:14.911Z,8.90
2019-06-15T01:49:14.913Z,8.70
2019-06-15T01:50:14.928Z,8.20
2019-06-15T01:51:14.904Z,7.30
2019-06-15T01:52:14.902Z,7.80
2019-06-15T01:53:14.906Z,8.00
2019-06-15T01:54:14.900Z,8.30
2019-06-15T01:55:20.864Z,7.30
2019-06-15T01:56:14.891Z,7.40
2019-06-15T01:57:14.884Z,7.20
2019-06-15T01:58:14.882Z,8.00
2019-06-15T01:59:14.883Z,8.50
2019-06-15T02:00:14.885Z,7.90
2019-06-15T02:01:14.879Z,7.70
2019-06-15T02:02:14.878Z,7.90
2019-06-15T02:03:14.877Z,8.60
2019-06-15T02:04:14.874Z,8.60
2019-06-15T02:05:14.868Z,7.90
2019-06-15T02:06:14.867Z,8.10
2019-06-15T02:07:14.867Z,8.30
2019-06-15T02:08:14.863Z,8.60
2019-06-15T02:09:14.860Z,9.50
2019-06-15T02:10:14.881Z,8.60
2019-06-15T02:11:14.851Z,8.70
2019-06-15T02:12:14.848Z,9.10
2019-06-15T02:13:14.863Z,9.90
2019-06-15T02:14:14.852Z,9.80
2019-06-15T02:15:14.856Z,9.20
2019-06-15T02:16:14.844Z,9.90
2019-06-15T02:17:14.837Z,9.70
2019-06-15T02:18:14.845Z,9.60
2019-06-15T02:19:14.834Z,10.30
2019-06-15T02:20:14.831Z,8.10
2019-06-15T02:21:14.835Z,8.30
2019-06-15T02:22:14.835Z,8.20
2019-06-15T02:23:14.829Z,8.40
2019-06-15T02:24:14.822Z,8.20
2019-06-15T02:25:14.824Z,7.90
2019-06-15T02:26:14.821Z,9.10
2019-06-15T02:27:14.816Z,8.40
2019-06-15T02:28:14.817Z,7.40
2019-06-15T02:29:14.808Z,8.30
2019-06-15T02:30:14.806Z,7.90
2019-06-15T02:31:14.805Z,8.10
2019-06-15T02:32:14.803Z,8.70
2019-06-15T02:33:14.802Z,8.20
2019-06-15T02:34:14.819Z,9.00
2019-06-15T02:35:14.801Z,9.60
2019-06-15T02:36:14.795Z,9.80
2019-06-15T02:37:14.791Z,9.20
2019-06-15T02:38:14.786Z,8.40
2019-06-15T02:39:14.788Z,9.70
2019-06-15T02:40:14.788Z,10.00
2019-06-15T02:41:14.779Z,9.50
2019-06-15T02:42:14.779Z,9.10
2019-06-15T02:43:14.773Z,9.00
2019-06-15T02:44:14.768Z,9.30
2019-06-15T02:45:14.776Z,8.60
2019-06-15T02:46:14.802Z,9.30
2019-06-15T02:47:14.776Z,10.80
2019-06-15T02:48:14.768Z,10.60
2019-06-15T02:49:14.759Z,10.60
2019-06-15T02:50:14.758Z,9.60
2019-06-15T02:51:14.753Z,9.00
2019-06-15T02:52:14.749Z,9.90
2019-06-15T02:53:14.751Z,11.20
2019-06-15T02:54:14.752Z,10.70
2019-06-15T02:55:14.742Z,10.90
2019-06-15T02:56:14.740Z,11.40
2019-06-15T02:57:14.741Z,10.60
2019-06-15T02:58:14.739Z,10.80
2019-06-15T02:59:14.739Z,10.70
2019-06-15T03:00:14.735Z,10.90
2019-06-15T03:01:14.730Z,10.60
2019-06-15T03:02:14.728Z,10.90
2019-06-15T03:03:14.726Z,11.90
2019-06-15T03:04:14.721Z,11.10
2019-06-15T03:05:14.725Z,11.00
2019-06-15T03:06:14.722Z,11.60
2019-06-15T03:07:14.751Z,12.00
2019-06-15T03:08:14.715Z,12.10
2019-06-15T03:09:14.733Z,13.10
2019-06-15T03:10:14.705Z,13.20
2019-06-15T03:11:14.710Z,14.00
2019-06-15T03:12:14.703Z,14.00
2019-06-15T03:13:14.700Z,12.90
2019-06-15T03:14:14.695Z,13.50
2019-06-15T03:15:14.696Z,13.90
2019-06-15T03:16:14.748Z,12.70
2019-06-15T03:17:14.692Z,12.20
2019-06-15T03:18:14.693Z,14.60
2019-06-15T03:19:14.689Z,15.10
2019-06-15T03:20:14.683Z,14.80
2019-06-15T03:21:14.678Z,13.70
2019-06-15T03:22:14.676Z,14.90
2019-06-15T03:23:14.671Z,15.00
2019-06-15T03:24:14.679Z,13.90
2019-06-15T03:25:14.675Z,14.80
2019-06-15T03:26:14.667Z,16.70
2019-06-15T03:27:14.661Z,15.60
2019-06-15T03:28:14.658Z,14.90
2019-06-15T03:29:14.660Z,15.00
2019-06-15T03:30:14.660Z,15.40
2019-06-15T03:31:14.668Z,13.20
2019-06-15T03:32:14.655Z,14.90
2019-06-15T03:33:14.648Z,13.70
2019-06-15T03:34:14.646Z,13.90
2019-06-15T03:35:14.643Z,14.70
2019-06-15T03:36:14.639Z,13.70
2019-06-15T03:37:14.642Z,13.30
2019-06-15T03:38:14.640Z,12.50
2019-06-15T03:39:14.643Z,13.40
2019-06-15T03:40:14.631Z,13.00
2019-06-15T03:41:14.624Z,14.50
2019-06-15T03:42:14.620Z,14.70
2019-06-15T03:43:14.622Z,14.50
2019-06-15T03:44:14.622Z,15.70
2019-06-15T03:45:14.615Z,14.00
2019-06-15T03:46:14.611Z,14.60
2019-06-15T03:47:14.611Z,15.40
2019-06-15T03:48:14.608Z,15.60
2019-06-15T03:49:14.611Z,14.80
2019-06-15T03:50:14.611Z,14.80
2019-06-15T03:51:14.605Z,14.50
2019-06-15T03:52:14.609Z,17.10
2019-06-15T03:53:14.597Z,16.90
2019-06-15T03:54:14.594Z,15.40
2019-06-15T03:55:14.589Z,17.20
2019-06-15T03:56:21.525Z,17.40
2019-06-15T03:57:14.586Z,17.80
2019-06-15T03:58:14.585Z,15.70
2019-06-15T03:59:14.577Z,17.60
2019-06-15T04:00:14.584Z,18.30
2019-06-15T04:01:14.578Z,18.90
2019-06-15T04:02:14.578Z,18.00
2019-06-15T04:03:14.574Z,19.90
2019-06-15T04:04:14.571Z,20.90
2019-06-15T04:05:14.565Z,22.00
2019-06-15T04:06:14.562Z,24.00
2019-06-15T04:07:14.560Z,28.20
2019-06-15T04:08:14.558Z,28.40
2019-06-15T04:09:14.560Z,29.20
2019-06-15T04:10:14.557Z,29.30
2019-06-15T04:11:14.562Z,29.00
2019-06-15T04:12:14.552Z,31.00
2019-06-15T04:13:14.542Z,32.10
2019-06-15T04:14:14.541Z,31.80
2019-06-15T04:15:14.545Z,32.40
2019-06-15T04:16:14.541Z,32.00
2019-06-15T04:17:14.533Z,32.50
2019-06-15T04:18:14.531Z,35.20
2019-06-15T04:19:14.530Z,31.90
2019-06-15T04:20:14.530Z,36.30
2019-06-15T04:21:14.527Z,33.00
2019-06-15T04:22:14.527Z,39.40
2019-06-15T04:23:14.525Z,36.40
2019-06-15T04:24:14.521Z,35.70
2019-06-15T04:25:14.515Z,35.20
2019-06-15T04:26:14.512Z,36.40
2019-06-15T04:27:14.508Z,37.60
2019-06-15T04:28:14.505Z,37.60
2019-06-15T04:29:14.505Z,38.70
2019-06-15T04:30:14.505Z,40.40
2019-06-15T04:31:14.500Z,41.80
2019-06-15T04:32:14.494Z,38.90
2019-06-15T04:33:14.499Z,40.90
2019-06-15T04:34:14.495Z,38.80
2019-06-15T04:35:14.496Z,38.10
2019-06-15T04:36:14.491Z,37.60
2019-06-15T04:37:14.486Z,37.90
2019-06-15T04:38:14.484Z,41.80
2019-06-15T04:39:14.482Z,39.90
2019-06-15T04:40:14.478Z,39.10
2019-06-15T04:41:14.479Z,41.30
2019-06-15T04:42:14.478Z,42.70
2019-06-15T04:43:14.474Z,40.60
2019-06-15T04:44:14.472Z,39.40
2019-06-15T04:45:14.464Z,42.00
2019-06-15T04:46:14.486Z,38.20
2019-06-15T04:47:14.463Z,41.50
2019-06-15T04:48:14.464Z,38.40
2019-06-15T04:49:14.453Z,38.30
2019-06-15T04:50:14.456Z,39.80
2019-06-15T04:51:14.451Z,37.60
2019-06-15T04:52:14.447Z,38.30
2019-06-15T04:53:14.953Z,39.80
2019-06-15T04:54:14.447Z,36.70
2019-06-15T04:55:14.447Z,35.80
2019-06-15T04:56:14.440Z,39.50
2019-06-15T04:57:14.434Z,36.70
2019-06-15T04:58:14.434Z,37.70
2019-06-15T04:59:14.433Z,37.90
2019-06-15T05:00:14.429Z,38.00
2019-06-15T05:01:14.430Z,36.80
2019-06-15T05:02:14.427Z,38.80
2019-06-15T05:03:14.421Z,36.50
2019-06-15T05:04:14.419Z,36.90
2019-06-15T05:05:14.421Z,34.70
2019-06-15T05:06:14.422Z,36.30
2019-06-15T05:07:14.418Z,40.50
2019-06-15T05:08:14.410Z,36.00
2019-06-15T05:09:14.405Z,35.80
2019-06-15T05:10:14.400Z,38.80
2019-06-15T05:11:14.404Z,37.40
2019-06-15T05:12:14.396Z,35.80
2019-06-15T05:13:14.401Z,37.70
2019-06-15T05:14:14.401Z,36.70
2019-06-15T05:15:14.396Z,36.80
2019-06-15T05:16:14.397Z,36.60
2019-06-15T05:17:14.387Z,33.30
2019-06-15T05:18:14.492Z,32.80
2019-06-15T05:19:14.388Z,31.50
2019-06-15T05:20:14.387Z,30.70
2019-06-15T05:21:14.406Z,30.20
2019-06-15T05:22:14.379Z,31.50
2019-06-15T05:23:14.373Z,31.10
2019-06-15T05:24:14.368Z,29.30
2019-06-15T05:25:14.369Z,28.90
2019-06-15T05:26:14.367Z,30.00
2019-06-15T05:27:14.367Z,29.20
2019-06-15T05:28:14.367Z,27.10
2019-06-15T05:29:14.357Z,28.50
2019-06-15T05:30:14.353Z,28.90
2019-06-15T05:31:14.354Z,27.00
2019-06-15T05:32:14.353Z,26.90
2019-06-15T05:33:14.353Z,26.50
2019-06-15T05:34:14.353Z,27.10
2019-06-15T05:35:14.347Z,26.40
2019-06-15T05:36:14.343Z,26.90
2019-06-15T05:37:14.345Z,30.30
2019-06-15T05:38:14.343Z,29.50
2019-06-15T05:39:14.339Z,28.40
2019-06-15T05:40:14.341Z,27.00
2019-06-15T05:41:15.770Z,29.30
2019-06-15T05:42:14.327Z,27.10
2019-06-15T05:43:14.324Z,25.90
2019-06-15T05:44:14.325Z,26.40
2019-06-15T05:45:14.327Z,28.30
2019-06-15T05:46:14.326Z,25.90
2019-06-15T05:47:14.323Z,25.70
2019-06-15T05:48:14.318Z,26.80
2019-06-15T05:49:14.316Z,27.10
2019-06-15T05:50:14.314Z,26.30
2019-06-15T05:51:14.341Z,25.50
2019-06-15T05:52:14.319Z,27.10
2019-06-15T05:53:14.304Z,26.70
2019-06-15T05:54:14.303Z,27.10
2019-06-15T05:55:14.297Z,26.60
2019-06-15T05:56:14.292Z,26.90
2019-06-15T05:57:21.542Z,26.30
2019-06-15T05:58:14.301Z,27.10
2019-06-15T05:59:14.297Z,25.80
2019-06-15T06:00:14.296Z,25.30
2019-06-15T06:01:14.286Z,24.70
2019-06-15T06:02:14.283Z,28.10
2019-06-15T06:03:14.276Z,27.20
2019-06-15T06:04:14.275Z,27.70
2019-06-15T06:05:14.278Z,24.80
2019-06-15T06:06:14.276Z,26.20
2019-06-15T06:07:14.268Z,24.90
2019-06-15T06:08:14.265Z,25.50
2019-06-15T06:09:14.275Z,25.20
2019-06-15T06:10:14.266Z,25.60
2019-06-15T06:11:14.308Z,25.50
2019-06-15T06:12:14.264Z,25.30
2019-06-15T06:13:14.261Z,25.00
2019-06-15T06:14:14.256Z,25.90
2019-06-15T06:15:14.256Z,26.20
2019-06-15T06:16:14.288Z,25.70
2019-06-15T06:17:14.263Z,26.00
2019-06-15T06:18:14.254Z,24.40
2019-06-15T06:19:14.248Z,26.00
2019-06-15T06:20:14.246Z,23.90
2019-06-15T06:21:14.240Z,24.10
2019-06-15T06:22:14.237Z,26.50
2019-06-15T06:23:14.316Z,25.80
2019-06-15T06:24:14.238Z,26.30
2019-06-15T06:25:14.236Z,24.40
2019-06-15T06:26:14.242Z,24.40
2019-06-15T06:27:14.231Z,24.90
2019-06-15T06:28:14.227Z,25.30
2019-06-15T06:29:14.230Z,26.10
2019-06-15T06:30:14.228Z,24.70
2019-06-15T06:31:14.227Z,23.90
2019-06-15T06:32:14.224Z,24.10
2019-06-15T06:33:14.218Z,25.60
2019-06-15T06:34:14.216Z,26.40
2019-06-15T06:35:14.217Z,25.40
2019-06-15T06:36:14.211Z,27.30
2019-06-15T06:37:14.216Z,25.60
2019-06-15T06:38:14.212Z,26.00
2019-06-15T06:39:14.204Z,26.70
2019-06-15T06:40:14.205Z,25.20
2019-06-15T06:41:14.204Z,27.10
2019-06-15T06:42:14.207Z,24.90
2019-06-15T06:43:14.205Z,25.80
2019-06-15T06:44:14.204Z,26.40
2019-06-15T06:45:14.202Z,27.50
2019-06-15T06:46:14.199Z,25.20
2019-06-15T06:47:14.195Z,25.90
2019-06-15T06:48:14.191Z,25.10
2019-06-15T06:49:14.195Z,23.40
2019-06-15T06:50:14.195Z,23.50
2019-06-15T06:51:14.187Z,24.20
2019-06-15T06:52:14.185Z,22.30
2019-06-15T06:53:14.259Z,23.30
2019-06-15T06:54:14.180Z,22.20
2019-06-15T06:55:14.183Z,22.30
2019-06-15T06:56:14.180Z,22.00
2019-06-15T06:57:14.176Z,21.40
2019-06-15T06:58:14.173Z,20.50
2019-06-15T06:59:14.176Z,19.40
2019-06-15T07:00:14.175Z,19.70
2019-06-15T07:01:14.177Z,20.50
2019-06-15T07:02:14.177Z,17.40
2019-06-15T07:03:14.177Z,18.40
2019-06-15T07:04:14.171Z,18.20
2019-06-15T07:05:14.168Z,16.70
2019-06-15T07:06:14.167Z,17.40
2019-06-15T07:07:14.172Z,16.60
2019-06-15T07:08:14.170Z,15.60
2019-06-15T07:09:14.173Z,15.90
2019-06-15T07:10:14.173Z,15.70
2019-06-15T07:11:14.170Z,15.60
2019-06-15T07:12:14.175Z,15.20
2019-06-15T07:13:14.178Z,16.00
2019-06-15T07:14:14.181Z,15.60
2019-06-15T07:15:14.176Z,16.50
2019-06-15T07:16:14.183Z,16.20
2019-06-15T07:17:14.171Z,16.80
2019-06-15T07:18:14.173Z,15.20
2019-06-15T07:19:14.180Z,16.10
2019-06-15T07:20:14.177Z,15.80
2019-06-15T07:21:14.180Z,15.90
2019-06-15T07:22:14.184Z,16.10
2019-06-15T07:23:14.195Z,16.50
2019-06-15T07:24:14.185Z,17.20
2019-06-15T07:25:14.183Z,16.90
2019-06-15T07:26:14.184Z,16.50
2019-06-15T07:27:14.190Z,16.10
2019-06-15T07:28:14.193Z,17.10
2019-06-15T07:29:14.186Z,16.30
2019-06-15T07:30:14.191Z,16.00
2019-06-15T07:31:14.185Z,15.80
2019-06-15T07:32:14.187Z,15.80
2019-06-15T07:33:14.192Z,15.40
2019-06-15T07:34:14.195Z,14.00
2019-06-15T07:35:14.197Z,14.10
2019-06-15T07:36:14.398Z,14.30
2019-06-15T07:37:14.194Z,14.70
2019-06-15T07:38:14.198Z,13.20
2019-06-15T07:39:14.207Z,14.90
2019-06-15T07:40:14.207Z,13.90
2019-06-15T07:41:14.214Z,12.90
2019-06-15T07:42:14.217Z,13.50
2019-06-15T07:43:14.219Z,13.80
2019-06-15T07:44:14.267Z,13.90
2019-06-15T07:45:14.232Z,13.50
2019-06-15T07:46:14.237Z,13.60
2019-06-15T07:47:14.241Z,11.60
2019-06-15T07:48:14.293Z,11.30
2019-06-15T07:49:14.246Z,12.10
2019-06-15T07:50:14.251Z,11.30
2019-06-15T07:51:14.262Z,10.70
2019-06-15T07:52:14.264Z,10.90
2019-06-15T07:53:14.278Z,10.50
2019-06-15T07:54:14.280Z,11.40
2019-06-15T07:55:14.290Z,12.80
2019-06-15T07:56:14.296Z,11.50
2019-06-15T07:57:14.300Z,12.50
2019-06-15T07:58:24.189Z,12.30
2019-06-15T07:59:14.314Z,12.30
2019-06-15T08:00:14.329Z,12.30
2019-06-15T08:01:14.323Z,12.90
2019-06-15T08:02:14.331Z,12.50
2019-06-15T08:03:14.330Z,12.50
2019-06-15T08:04:14.368Z,12.40
2019-06-15T08:05:14.346Z,12.50
2019-06-15T08:06:14.352Z,11.30
2019-06-15T08:07:14.354Z,10.70
2019-06-15T08:08:14.358Z,9.90
2019-06-15T08:09:14.374Z,9.70
2019-06-15T08:10:14.371Z,9.80
2019-06-15T08:11:14.378Z,9.60
2019-06-15T08:12:14.377Z,9.20
2019-06-15T08:13:14.379Z,9.60
2019-06-15T08:14:14.380Z,9.40
2019-06-15T08:15:14.391Z,8.60
2019-06-15T08:16:14.392Z,9.50
2019-06-15T08:17:14.402Z,9.00
2019-06-15T08:18:14.394Z,8.80
2019-06-15T08:19:14.402Z,8.30
2019-06-15T08:20:14.412Z,8.40
2019-06-15T08:21:14.408Z,7.20
2019-06-15T08:22:14.413Z,7.20
2019-06-15T08:23:14.415Z,6.50
2019-06-15T08:24:14.419Z,7.10
2019-06-15T08:25:14.415Z,7.10
2019-06-15T08:26:14.420Z,7.00
2019-06-15T08:27:14.418Z,6.20
2019-06-15T08:28:14.419Z,6.40
2019-06-15T08:29:14.426Z,5.20
2019-06-15T08:30:14.437Z,4.50
2019-06-15T08:31:14.422Z,4.30
2019-06-15T08:32:14.425Z,4.00
2019-06-15T08:33:14.430Z,4.30
2019-06-15T08:34:14.431Z,3.90
2019-06-15T08:35:14.436Z,3.70
2019-06-15T08:36:14.434Z,3.70
2019-06-15T08:37:14.431Z,3.70
2019-06-15T08:38:14.437Z,3.40
2019-06-15T08:39:14.444Z,3.20
2019-06-15T08:40:14.434Z,2.90
2019-06-15T08:41:14.439Z,2.80
2019-06-15T08:42:14.441Z,3.10
2019-06-15T08:43:14.439Z,3.10
2019-06-15T08:44:14.437Z,2.60
2019-06-15T08:45:14.434Z,2.50
2019-06-15T08:46:14.434Z,3.10
2019-06-15T08:47:14.451Z,2.90
2019-06-15T08:48:14.487Z,2.50
2019-06-15T08:49:14.436Z,2.40
2019-06-15T08:50:14.435Z,2.60
2019-06-15T08:51:14.437Z,2.80
2019-06-15T08:52:14.436Z,2.70
2019-06-15T08:53:14.439Z,2.40
2019-06-15T08:54:14.444Z,2.60
2019-06-15T08:55:14.442Z,2.40
2019-06-15T08:56:14.438Z,2.40
2019-06-15T08:57:14.436Z,2.50
2019-06-15T08:58:14.435Z,2.30
2019-06-15T08:59:14.436Z,2.30
2019-06-15T09:00:14.432Z,2.60
2019-06-15T09:01:14.438Z,2.60
2019-06-15T09:02:14.437Z,2.70
2019-06-15T09:03:14.431Z,2.30
2019-06-15T09:04:14.429Z,3.00
2019-06-15T09:05:14.433Z,2.80
2019-06-15T09:06:14.432Z,3.10
2019-06-15T09:07:14.433Z,2.90
2019-06-15T09:08:14.434Z,2.50
2019-06-15T09:09:16.083Z,2.40
2019-06-15T09:10:14.427Z,2.60
2019-06-15T09:11:14.430Z,2.90
2019-06-15T09:12:14.421Z,3.00
2019-06-15T09:13:14.425Z,2.70
2019-06-15T09:14:14.429Z,3.30
2019-06-15T09:15:14.425Z,3.10
2019-06-15T09:16:14.423Z,3.60
2019-06-15T09:17:14.418Z,3.80
2019-06-15T09:18:14.418Z,4.90
2019-06-15T09:19:14.423Z,6.00
2019-06-15T09:20:14.418Z,6.60
2019-06-15T09:21:14.415Z,6.30
2019-06-15T09:22:14.416Z,8.10
2019-06-15T09:23:14.410Z,8.40
2019-06-15T09:24:14.408Z,8.20
2019-06-15T09:25:14.410Z,8.90
2019-06-15T09:26:14.411Z,10.00
2019-06-15T09:27:14.419Z,9.60
2019-06-15T09:28:14.407Z,10.40
2019-06-15T09:29:14.402Z,11.60
2019-06-15T09:30:14.402Z,12.70
2019-06-15T09:31:14.403Z,12.60
2019-06-15T09:32:14.402Z,12.00
2019-06-15T09:33:14.405Z,12.80
2019-06-15T09:34:18.937Z,13.10
2019-06-15T09:35:14.399Z,14.70
2019-06-15T09:36:14.398Z,15.00
2019-06-15T09:37:14.400Z,15.90
2019-06-15T09:38:14.399Z,18.90
2019-06-15T09:39:14.749Z,17.50
2019-06-15T09:40:14.396Z,18.00
2019-06-15T09:41:14.392Z,19.00
2019-06-15T09:42:14.389Z,17.20
2019-06-15T09:43:14.390Z,17.40
2019-06-15T09:44:14.390Z,16.70
2019-06-15T09:45:14.394Z,16.00
2019-06-15T09:46:14.395Z,15.80
2019-06-15T09:47:14.398Z,15.90
2019-06-15T09:48:14.396Z,15.90
2019-06-15T09:49:14.395Z,14.80
2019-06-15T09:50:14.395Z,14.90
2019-06-15T09:51:14.400Z,14.00
2019-06-15T09:52:14.401Z,14.50
2019-06-15T09:53:14.399Z,13.90
2019-06-15T09:54:14.401Z,13.40
2019-06-15T09:55:14.398Z,13.30
2019-06-15T09:56:14.402Z,12.50
2019-06-15T09:57:14.418Z,11.80
2019-06-15T09:58:14.408Z,12.20
2019-06-15T09:59:25.619Z,11.60
2019-06-15T10:00:14.413Z,10.60
2019-06-15T10:01:14.412Z,10.80
2019-06-15T10:02:14.413Z,10.70
2019-06-15T10:03:14.420Z,9.80
2019-06-15T10:04:14.436Z,10.00
2019-06-15T10:05:14.438Z,9.60
2019-06-15T10:06:14.448Z,9.20
2019-06-15T10:07:14.437Z,8.10
2019-06-15T10:08:14.463Z,8.50
2019-06-15T10:09:14.635Z,9.50
2019-06-15T10:10:14.468Z,8.40
2019-06-15T10:11:14.466Z,8.80
2019-06-15T10:12:14.468Z,8.20
2019-06-15T10:13:14.473Z,8.10
2019-06-15T10:14:14.483Z,7.20
2019-06-15T10:15:14.499Z,8.30
2019-06-15T10:16:14.505Z,7.90
2019-06-15T10:17:14.518Z,7.70
2019-06-15T10:18:14.530Z,6.70
2019-06-15T10:19:14.537Z,7.10
2019-06-15T10:20:14.555Z,6.50
2019-06-15T10:21:14.556Z,6.40
2019-06-15T10:22:14.576Z,6.10
2019-06-15T10:23:14.583Z,5.80
2019-06-15T10:24:14.595Z,5.90
2019-06-15T10:25:14.601Z,5.30
2019-06-15T10:26:14.615Z,5.40
2019-06-15T10:27:14.631Z,5.00
2019-06-15T10:28:14.642Z,5.10
2019-06-15T10:29:14.660Z,4.70
2019-06-15T10:30:14.672Z,4.50
2019-06-15T10:31:14.689Z,5.00
2019-06-15T10:32:14.745Z,4.90
2019-06-15T10:33:14.712Z,4.50
2019-06-15T10:34:14.723Z,4.00
2019-06-15T10:35:14.734Z,3.90
2019-06-15T10:36:14.754Z,4.00
2019-06-15T10:37:14.766Z,3.40
2019-06-15T10:38:14.781Z,3.40
2019-06-15T10:39:14.805Z,3.70
2019-06-15T10:40:14.807Z,3.10
2019-06-15T10:41:14.828Z,2.70
2019-06-15T10:42:14.837Z,2.80
2019-06-15T10:43:14.856Z,2.40
2019-06-15T10:44:14.869Z,2.60
2019-06-15T10:45:14.878Z,2.40
2019-06-15T10:46:14.893Z,2.50
2019-06-15T10:47:14.909Z,2.50
2019-06-15T10:48:14.922Z,2.50
2019-06-15T10:49:14.943Z,2.50
2019-06-15T10:50:14.956Z,2.40
2019-06-15T10:51:14.970Z,2.50
2019-06-15T10:52:14.986Z,2.20
2019-06-15T10:53:14.999Z,2.40
2019-06-15T10:54:15.010Z,2.20
2019-06-15T10:55:15.035Z,2.10
2019-06-15T10:56:15.048Z,2.20
2019-06-15T10:57:15.059Z,1.80
2019-06-15T10:58:15.076Z,1.90
2019-06-15T10:59:15.094Z,1.80
2019-06-15T11:00:15.118Z,1.60
2019-06-15T11:01:15.136Z,1.90
2019-06-15T11:02:15.145Z,1.70
2019-06-15T11:03:15.163Z,1.90
2019-06-15T11:04:15.178Z,2.00
2019-06-15T11:05:15.192Z,1.90
2019-06-15T11:06:15.209Z,1.80
2019-06-15T11:07:15.226Z,1.80
2019-06-15T11:08:15.238Z,1.50
2019-06-15T11:09:15.261Z,1.70
2019-06-15T11:10:15.280Z,1.70
2019-06-15T11:11:15.290Z,1.50
2019-06-15T11:12:15.306Z,1.60
2019-06-15T11:13:15.328Z,1.70
2019-06-15T11:14:15.345Z,1.70
2019-06-15T11:15:15.365Z,1.80
2019-06-15T11:16:15.376Z,2.00
2019-06-15T11:17:15.395Z,2.20
2019-06-15T11:18:15.419Z,2.10
2019-06-15T11:19:15.418Z,1.90
2019-06-15T11:20:15.430Z,1.80
2019-06-15T11:21:15.448Z,2.00
2019-06-15T11:22:15.465Z,2.20
2019-06-15T11:23:15.482Z,2.10
2019-06-15T11:24:15.494Z,2.20
2019-06-15T11:25:15.505Z,2.00
2019-06-15T11:26:15.516Z,2.10
2019-06-15T11:27:15.552Z,2.60
2019-06-15T11:28:15.545Z,2.10
2019-06-15T11:29:15.576Z,2.40
2019-06-15T11:30:15.570Z,2.40
2019-06-15T11:31:15.624Z,2.60
2019-06-15T11:32:15.585Z,2.30
2019-06-15T11:33:15.601Z,2.10
2019-06-15T11:34:15.620Z,2.20
2019-06-15T11:35:15.624Z,2.30
2019-06-15T11:36:15.640Z,2.10
2019-06-15T11:37:15.640Z,2.40
2019-06-15T11:38:15.648Z,2.20
2019-06-15T11:39:15.663Z,2.00
2019-06-15T11:40:15.721Z,1.80
2019-06-15T11:41:15.685Z,1.90
2019-06-15T11:42:15.697Z,1.90
2019-06-15T11:43:15.709Z,1.80
2019-06-15T11:44:15.707Z,2.10
2019-06-15T11:45:15.720Z,1.80
2019-06-15T11:46:15.727Z,1.50
2019-06-15T11:47:15.733Z,1.80
2019-06-15T11:48:15.746Z,1.50
2019-06-15T11:49:15.746Z,1.70
2019-06-15T11:50:15.752Z,2.00
2019-06-15T11:51:15.764Z,1.70
2019-06-15T11:52:15.767Z,1.70
2019-06-15T11:53:15.779Z,2.00
2019-06-15T11:54:15.787Z,1.90
2019-06-15T11:55:15.797Z,1.70
2019-06-15T11:56:15.804Z,1.70
2019-06-15T11:57:15.806Z,1.60
2019-06-15T11:58:15.814Z,1.70
2019-06-15T11:59:15.826Z,1.80
2019-06-15T12:00:30.389Z,1.50
2019-06-15T12:01:18.810Z,1.40
2019-06-15T12:02:15.842Z,1.50
2019-06-15T12:03:15.845Z,1.70
2019-06-15T12:04:15.851Z,1.40
2019-06-15T12:05:15.884Z,1.40
2019-06-15T12:06:15.876Z,1.50
2019-06-15T12:07:15.876Z,1.50
2019-06-15T12:08:15.884Z,1.60
2019-06-15T12:09:15.893Z,1.50
2019-06-15T12:10:15.891Z,1.70
2019-06-15T12:11:15.902Z,1.80
2019-06-15T12:12:15.906Z,1.80
2019-06-15T12:13:15.918Z,1.80
2019-06-15T12:14:16.015Z,1.90
2019-06-15T12:15:15.927Z,2.00
2019-06-15T12:16:15.937Z,1.90
2019-06-15T12:17:15.943Z,2.10
2019-06-15T12:18:15.951Z,1.90
2019-06-15T12:19:15.960Z,1.80
2019-06-15T12:20:15.960Z,1.70
2019-06-15T12:21:15.963Z,1.70
2019-06-15T12:22:15.969Z,2.20
2019-06-15T12:23:15.975Z,1.90
2019-06-15T12:24:15.982Z,2.10
2019-06-15T12:25:15.991Z,2.10
2019-06-15T12:26:16.001Z,1.70
2019-06-15T12:27:16.006Z,2.00
2019-06-15T12:28:16.015Z,2.00
2019-06-15T12:29:16.015Z,1.90
2019-06-15T12:30:16.021Z,1.80
2019-06-15T12:31:16.035Z,1.80
2019-06-15T12:32:16.037Z,1.90
2019-06-15T12:33:16.040Z,2.10
2019-06-15T12:34:16.060Z,1.80
2019-06-15T12:35:16.049Z,2.00
2019-06-15T12:36:19.467Z,2.10
2019-06-15T12:37:16.064Z,2.20
2019-06-15T12:38:16.069Z,2.10
2019-06-15T12:39:16.080Z,2.00
2019-06-15T12:40:16.078Z,2.30
2019-06-15T12:41:16.086Z,2.10
2019-06-15T12:42:16.087Z,2.50
2019-06-15T12:43:16.097Z,2.40
2019-06-15T12:44:16.100Z,2.10
2019-06-15T12:45:16.111Z,2.30
2019-06-15T12:46:16.126Z,2.40
2019-06-15T12:47:16.120Z,2.30
2019-06-15T12:48:16.152Z,2.20
2019-06-15T12:49:16.134Z,2.40
2019-06-15T12:50:16.136Z,2.10
2019-06-15T12:51:16.166Z,2.30
2019-06-15T12:52:16.145Z,2.10
2019-06-15T12:53:16.148Z,2.40
2019-06-15T12:54:16.152Z,2.60
2019-06-15T12:55:16.159Z,2.60
2019-06-15T12:56:16.160Z,2.50
2019-06-15T12:57:16.171Z,2.70
2019-06-15T12:58:16.208Z,2.30
2019-06-15T12:59:16.188Z,2.60
2019-06-15T13:00:16.187Z,2.40
2019-06-15T13:01:16.201Z,2.10
2019-06-15T13:02:16.198Z,2.50
2019-06-15T13:03:16.348Z,2.30
2019-06-15T13:04:16.205Z,2.50
2019-06-15T13:05:16.235Z,2.10
2019-06-15T13:06:16.214Z,2.40